Skip Navigation Links Skip Navigation Links

Current Weather

Chicago O'Hare Intl, Chicago

For information only: do not use for flight planning or navigation.
Latest weather
Observation time Thursday, October 28, 2021 5:18 AM CDT
Local time Thursday, October 28, 2021 5:30 AM CDT
Flight conditions Marginal Visual Meteorological Conditions
Winds
Wind direction East-Southeast (120°)
Wind speed 8 mph
Visibility 10 mi.
Sky condition
Ceiling 1,400 ft. overcast
Cloud layer overcast 1,400 ft.
Temperature 50°F
Dewpoint 45°F
Altimeter 29.71 in.Hg
Derived measurements
Relative humidity 83%
Wind chill 47°F
Density altitude 460 ft.
Remarks
Automated weather observing station with precipitation discriminator.
METAR KORD 281018Z 12007KT 10SM OVC014 10/07 A2971 RMK AO2 T01000072

Settings

Location code

InnerDrive.Weather 4.0.6770.0 Release CLR 4.0.30319.42000
Copyright ©2018 Inner Drive Technology. All rights reserved. Portions Copyright ©1986-2018 David Braverman.

Find weather

Site navigation


Skip Navigation Links

Place info

Page info

PayPal - The safer, easier way to pay online!

Return home.

Copyright ©2021 Inner Drive Technology. Purveyors of fine, hand-crafted computer software. Page printed 2021-10-28T10:30:12 UTC.